Time;durP1;ratioP1;P1;durP2;ratioP2;P2;SDS_P1;SDS_P2;PMS_P1;PMS_P2;Temp;Humidity;BMP_temperature;BMP_pressure;BME280_temperature;BME280_humidity;BME280_pressure;Samples;Min_cycle;Max_cycle;Signal;HPM_P1;HPM_P2
2021/12/26 00:00:53;;;;;;;19.90;11.75;;;5.40;99.90;;;;;;5029482;28;20026;-78
2021/12/26 00:03:20;;;;;;;19.13;11.98;;;5.60;99.90;;;;;;5025551;28;20116;-78
2021/12/26 00:05:46;;;;;;;21.83;12.63;;;5.70;99.90;;;;;;5027973;28;20032;-78
2021/12/26 00:08:12;;;;;;;19.67;12.52;;;5.60;99.90;;;;;;5028894;28;20506;-78
2021/12/26 00:10:39;;;;;;;18.98;12.10;;;5.70;99.90;;;;;;5028867;28;20021;-79
2021/12/26 00:13:05;;;;;;;21.13;12.75;;;5.80;99.90;;;;;;5028728;28;20037;-78
2021/12/26 00:15:30;;;;;;;20.52;12.70;;;5.80;99.90;;;;;;5028126;28;20033;-78
2021/12/26 00:17:56;;;;;;;21.63;11.80;;;5.80;99.90;;;;;;5028069;28;20430;-78
2021/12/26 00:20:22;;;;;;;21.35;12.88;;;5.80;99.90;;;;;;5030026;28;20110;-78
2021/12/26 00:22:48;;;;;;;19.23;12.35;;;5.70;99.90;;;;;;5028755;28;20530;-78
2021/12/26 00:25:15;;;;;;;19.10;12.30;;;5.70;99.90;;;;;;5024965;28;20030;-78
2021/12/26 00:27:42;;;;;;;20.60;12.20;;;5.80;99.90;;;;;;5017495;28;20056;-78
2021/12/26 00:30:12;;;;;;;20.50;12.85;;;5.80;99.90;;;;;;5045021;28;20021;-78
2021/12/26 00:32:39;;;;;;;19.63;12.70;;;5.70;99.90;;;;;;5026539;28;20025;-78
2021/12/26 00:35:06;;;;;;;20.83;12.88;;;5.50;99.90;;;;;;5028627;28;20087;-78
2021/12/26 00:37:32;;;;;;;19.05;11.45;;;5.60;99.90;;;;;;5028495;28;20079;-78
2021/12/26 00:39:57;;;;;;;21.92;12.80;;;5.50;99.90;;;;;;5027664;28;20434;-78
2021/12/26 00:42:23;;;;;;;19.65;12.43;;;5.50;99.90;;;;;;5028513;28;20715;-78
2021/12/26 00:44:49;;;;;;;20.02;12.45;;;5.50;99.90;;;;;;5028960;28;20049;-78
2021/12/26 00:47:15;;;;;;;20.10;12.32;;;5.50;99.90;;;;;;5030094;28;20022;-78
2021/12/26 00:49:41;;;;;;;20.52;12.05;;;5.40;99.90;;;;;;5027722;28;20511;-79
2021/12/26 00:52:08;;;;;;;19.90;11.88;;;5.40;99.90;;;;;;5026652;28;20124;-78
2021/12/26 00:54:34;;;;;;;18.55;12.48;;;5.40;99.90;;;;;;5028768;28;20068;-78
2021/12/26 00:57:00;;;;;;;17.83;10.98;;;5.40;99.90;;;;;;5060704;28;20038;-78
2021/12/26 00:59:27;;;;;;;19.15;11.35;;;5.40;99.90;;;;;;5030156;28;20100;-78
2021/12/26 01:01:53;;;;;;;20.50;12.00;;;5.40;99.90;;;;;;5028396;28;20029;-78
2021/12/26 01:04:23;;;;;;;19.33;11.68;;;5.40;99.90;;;;;;5027074;28;20025;-79
2021/12/26 01:06:49;;;;;;;17.90;11.50;;;5.30;99.90;;;;;;5028109;28;20025;-79
2021/12/26 01:09:21;;;;;;;18.48;11.10;;;5.30;99.90;;;;;;5028666;28;20108;-78
2021/12/26 01:11:52;;;;;;;17.23;11.18;;;5.30;99.90;;;;;;5028304;28;20088;-79
2021/12/26 01:14:25;;;;;;;15.43;10.35;;;5.20;99.90;;;;;;5028186;28;20434;-78
2021/12/26 01:17:01;;;;;;;16.10;10.63;;;5.20;99.90;;;;;;5028320;28;20079;-78
2021/12/26 01:19:32;;;;;;;17.40;10.43;;;5.30;99.90;;;;;;5027684;28;20060;-79
2021/12/26 01:21:59;;;;;;;13.52;9.60;;;5.20;99.90;;;;;;5028857;28;20056;-79
2021/12/26 01:24:25;;;;;;;16.88;10.57;;;5.20;99.90;;;;;;5028756;28;20041;-79
2021/12/26 01:26:50;;;;;;;15.82;10.20;;;5.10;99.90;;;;;;5060515;28;20064;-79
2021/12/26 01:29:16;;;;;;;14.95;10.02;;;5.20;99.90;;;;;;5030123;28;20033;-79
2021/12/26 01:31:42;;;;;;;15.45;10.25;;;5.10;99.90;;;;;;5030673;28;20112;-79
2021/12/26 01:34:08;;;;;;;16.05;9.43;;;5.20;99.90;;;;;;5031540;28;20063;-78
2021/12/26 01:36:35;;;;;;;15.90;9.60;;;5.20;99.90;;;;;;5031949;28;20053;-78
2021/12/26 01:39:02;;;;;;;15.65;9.38;;;5.20;99.90;;;;;;5031771;28;20029;-78
2021/12/26 01:41:29;;;;;;;18.10;9.85;;;5.10;99.90;;;;;;5032016;28;20502;-79
2021/12/26 01:43:59;;;;;;;17.23;9.95;;;5.10;99.90;;;;;;5031236;28;20049;-78
2021/12/26 01:46:26;;;;;;;15.05;9.27;;;5.10;99.90;;;;;;5032099;28;20029;-78
2021/12/26 01:49:06;;;;;;;16.15;9.20;;;5.10;99.90;;;;;;5030040;28;20065;-78
2021/12/26 01:51:32;;;;;;;16.83;9.95;;;5.10;99.90;;;;;;5018687;28;20053;-78
2021/12/26 01:54:03;;;;;;;14.40;9.55;;;5.10;99.90;;;;;;5032071;28;20525;-79
2021/12/26 01:56:29;;;;;;;15.98;9.68;;;5.10;99.90;;;;;;5032685;28;20109;-78
2021/12/26 01:58:56;;;;;;;16.60;9.90;;;5.10;99.90;;;;;;5031557;28;20108;-79
2021/12/26 02:01:23;;;;;;;13.93;9.05;;;5.10;99.90;;;;;;5031606;28;20041;-78
2021/12/26 02:03:49;;;;;;;15.48;10.05;;;5.20;99.90;;;;;;5030924;28;20025;-78
2021/12/26 02:06:15;;;;;;;16.52;9.50;;;5.10;99.90;;;;;;5029202;28;20571;-79
2021/12/26 02:08:41;;;;;;;14.32;9.35;;;5.00;99.90;;;;;;5030936;28;20407;-78
2021/12/26 02:11:08;;;;;;;14.70;8.93;;;5.00;99.90;;;;;;5031644;28;20025;-78
2021/12/26 02:13:34;;;;;;;14.73;9.32;;;5.10;99.90;;;;;;5031339;28;20104;-78
2021/12/26 02:16:00;;;;;;;15.68;8.55;;;5.10;99.90;;;;;;5031129;28;20049;-78
2021/12/26 02:18:26;;;;;;;16.60;9.65;;;5.10;99.90;;;;;;5031230;28;20187;-78
2021/12/26 02:23:43;;;;;;;12.48;8.85;;;5.10;99.90;;;;;;5032027;28;20398;-79
2021/12/26 02:28:40;;;;;;;12.13;7.90;;;5.20;99.90;;;;;;5030510;28;20121;-78
2021/12/26 02:31:06;;;;;;;12.40;7.45;;;5.20;99.90;;;;;;5030479;28;20032;-78
2021/12/26 02:33:33;;;;;;;13.98;8.05;;;5.30;99.90;;;;;;5029625;28;20017;-78
2021/12/26 02:35:59;;;;;;;12.65;7.50;;;5.40;99.90;;;;;;5029243;28;20080;-78
2021/12/26 02:38:24;;;;;;;11.60;7.82;;;5.40;99.90;;;;;;5031866;28;20025;-78
2021/12/26 02:40:53;;;;;;;12.25;7.95;;;5.30;99.90;;;;;;5025504;28;20131;-78
2021/12/26 02:43:21;;;;;;;12.85;8.43;;;5.30;99.90;;;;;;5030570;28;20025;-78
2021/12/26 02:45:47;;;;;;;12.27;7.70;;;5.40;99.90;;;;;;5030265;28;20044;-78
2021/12/26 02:48:13;;;;;;;10.23;6.38;;;5.40;99.90;;;;;;5027976;28;20060;-78
2021/12/26 02:50:40;;;;;;;13.05;7.78;;;5.40;99.90;;;;;;5027952;28;20487;-79
2021/12/26 02:53:09;;;;;;;11.38;6.60;;;5.40;99.90;;;;;;5031170;28;20025;-78
2021/12/26 02:55:35;;;;;;;9.68;6.57;;;5.40;99.90;;;;;;5029067;28;20061;-78
2021/12/26 02:58:07;;;;;;;12.50;7.35;;;5.40;99.90;;;;;;5030466;28;20027;-78
2021/12/26 03:00:38;;;;;;;10.80;7.18;;;5.50;99.90;;;;;;5029024;28;20040;-78
2021/12/26 03:03:05;;;;;;;10.80;7.22;;;5.60;99.90;;;;;;5029319;28;20503;-78
2021/12/26 03:05:35;;;;;;;11.85;6.70;;;5.60;99.90;;;;;;5031892;28;20025;-79
2021/12/26 03:08:00;;;;;;;11.20;6.40;;;5.60;99.90;;;;;;5028619;28;20108;-78
2021/12/26 03:10:27;;;;;;;8.80;6.25;;;5.60;99.90;;;;;;5029889;28;20566;-78
2021/12/26 03:13:02;;;;;;;10.23;6.60;;;5.60;99.90;;;;;;5029905;28;20021;-78
2021/12/26 03:15:30;;;;;;;9.43;6.28;;;5.70;99.90;;;;;;5029677;28;20029;-78
2021/12/26 03:17:56;;;;;;;8.57;5.82;;;5.60;99.90;;;;;;5030416;28;20026;-78
2021/12/26 03:20:25;;;;;;;7.43;5.68;;;5.50;99.90;;;;;;5031396;28;20025;-78
2021/12/26 03:22:51;;;;;;;12.77;6.80;;;5.20;99.90;;;;;;5029684;28;20029;-78
2021/12/26 03:25:22;;;;;;;10.40;6.30;;;5.40;99.90;;;;;;5029884;28;20091;-78
2021/12/26 03:27:49;;;;;;;10.15;6.30;;;5.40;99.90;;;;;;5029820;28;20538;-78
2021/12/26 03:30:19;;;;;;;9.93;6.15;;;5.40;99.90;;;;;;5028836;28;20029;-78
2021/12/26 03:32:45;;;;;;;8.75;6.03;;;5.40;99.90;;;;;;5030414;28;20021;-78
2021/12/26 03:35:11;;;;;;;8.02;5.60;;;5.40;99.90;;;;;;5030522;28;20022;-78
2021/12/26 03:37:38;;;;;;;9.82;6.43;;;5.40;99.90;;;;;;5027970;28;20647;-78
2021/12/26 03:40:05;;;;;;;8.82;5.93;;;5.40;99.90;;;;;;5028142;28;20048;-79
2021/12/26 03:42:31;;;;;;;8.93;6.10;;;5.30;99.90;;;;;;5029279;28;20100;-78
2021/12/26 03:44:58;;;;;;;8.73;5.47;;;5.30;99.90;;;;;;5029827;28;20061;-79
2021/12/26 03:47:24;;;;;;;10.57;6.78;;;5.30;99.90;;;;;;5029744;28;20022;-78
2021/12/26 03:49:51;;;;;;;8.68;5.80;;;5.30;99.90;;;;;;5029678;28;20021;-78
2021/12/26 03:52:17;;;;;;;10.10;5.93;;;5.40;99.90;;;;;;5027825;28;20499;-78
2021/12/26 03:54:43;;;;;;;8.77;5.95;;;5.30;99.90;;;;;;5029114;28;20024;-78
2021/12/26 03:57:09;;;;;;;9.18;5.63;;;5.30;99.90;;;;;;5027919;28;20053;-78
2021/12/26 03:59:34;;;;;;;8.43;5.78;;;5.30;99.90;;;;;;5030826;28;20052;-78
2021/12/26 04:02:00;;;;;;;9.73;5.97;;;5.30;99.90;;;;;;5028745;28;20036;-78
2021/12/26 04:04:26;;;;;;;8.45;5.03;;;5.30;99.90;;;;;;5029077;28;20600;-78
2021/12/26 04:06:52;;;;;;;9.57;6.00;;;5.40;99.90;;;;;;5027853;28;20556;-79
2021/12/26 04:09:18;;;;;;;9.57;5.50;;;5.30;99.90;;;;;;5029127;28;20064;-79
2021/12/26 04:11:45;;;;;;;7.82;4.95;;;5.30;99.90;;;;;;5029630;28;20084;-79
2021/12/26 04:14:13;;;;;;;8.60;5.68;;;5.30;99.90;;;;;;5030441;28;20034;-78
2021/12/26 04:16:39;;;;;;;8.95;5.68;;;5.30;99.90;;;;;;5029333;28;20518;-78
2021/12/26 04:19:05;;;;;;;9.20;5.63;;;5.30;99.90;;;;;;5028674;28;20101;-79
2021/12/26 04:21:31;;;;;;;9.10;5.10;;;5.30;99.90;;;;;;5029007;28;20120;-79
2021/12/26 04:23:56;;;;;;;7.95;5.53;;;5.30;99.90;;;;;;5029723;28;20037;-78
2021/12/26 04:26:22;;;;;;;7.63;5.03;;;5.30;99.90;;;;;;5029415;28;20022;-78
2021/12/26 04:28:48;;;;;;;10.63;6.07;;;5.30;99.90;;;;;;5019995;28;20030;-78
2021/12/26 04:31:15;;;;;;;8.77;5.38;;;5.30;99.90;;;;;;5022265;28;20410;-78
2021/12/26 04:33:41;;;;;;;9.77;5.03;;;5.30;99.90;;;;;;5028931;28;20075;-78
2021/12/26 04:36:07;;;;;;;9.43;5.35;;;5.30;99.90;;;;;;5029166;28;20038;-78
2021/12/26 04:38:33;;;;;;;8.70;5.70;;;5.30;99.90;;;;;;5029850;28;20029;-78
2021/12/26 04:40:59;;;;;;;8.23;5.53;;;5.20;99.90;;;;;;5028449;28;20017;-78
2021/12/26 04:43:26;;;;;;;9.02;5.05;;;5.20;99.90;;;;;;5023874;28;20047;-78
2021/12/26 04:45:52;;;;;;;8.32;5.60;;;5.20;99.90;;;;;;5024579;28;20026;-78
2021/12/26 04:48:18;;;;;;;8.07;5.25;;;5.10;99.90;;;;;;5028203;28;20029;-78
2021/12/26 04:50:44;;;;;;;8.07;5.57;;;5.20;99.90;;;;;;5029149;28;20100;-78
2021/12/26 04:53:10;;;;;;;7.07;5.35;;;5.10;99.90;;;;;;5029520;28;20050;-78
2021/12/26 04:55:37;;;;;;;8.82;5.18;;;5.10;99.90;;;;;;5026079;28;20034;-78
2021/12/26 04:58:03;;;;;;;10.68;5.93;;;5.20;99.90;;;;;;5028584;28;20029;-78
2021/12/26 05:00:31;;;;;;;10.32;5.97;;;5.10;99.90;;;;;;5025728;28;20034;-79
2021/12/26 05:02:58;;;;;;;9.10;5.60;;;5.10;99.90;;;;;;5026902;28;20036;-78
2021/12/26 05:05:26;;;;;;;7.93;4.80;;;5.10;99.90;;;;;;5031103;28;20079;-78
2021/12/26 05:07:54;;;;;;;8.50;4.85;;;5.10;99.90;;;;;;5032314;28;20062;-78
2021/12/26 05:10:21;;;;;;;8.25;5.53;;;5.10;99.90;;;;;;5031948;28;20075;-78
2021/12/26 05:12:47;;;;;;;8.23;5.07;;;5.10;99.90;;;;;;5031402;28;20112;-78
2021/12/26 05:15:13;;;;;;;7.18;5.38;;;5.20;99.90;;;;;;5032529;28;20029;-78
2021/12/26 05:17:42;;;;;;;7.45;4.50;;;5.20;99.90;;;;;;5033520;28;20026;-78
2021/12/26 05:20:10;;;;;;;7.60;4.55;;;5.20;99.90;;;;;;5031361;28;20030;-78
2021/12/26 05:22:36;;;;;;;8.80;5.05;;;5.30;99.90;;;;;;5032962;28;20037;-78
2021/12/26 05:25:03;;;;;;;7.25;4.30;;;5.30;99.90;;;;;;5032124;28;20022;-78
2021/12/26 05:27:29;;;;;;;9.55;5.50;;;5.30;99.90;;;;;;5032121;28;20060;-78
2021/12/26 05:29:54;;;;;;;6.38;4.22;;;5.40;99.90;;;;;;5032243;28;20060;-78
2021/12/26 05:32:20;;;;;;;9.13;5.10;;;5.40;99.90;;;;;;5030980;28;20032;-78
2021/12/26 05:34:47;;;;;;;8.45;4.72;;;5.40;99.90;;;;;;5031640;28;20022;-78
2021/12/26 05:37:12;;;;;;;6.57;4.75;;;5.50;99.90;;;;;;5031767;28;20056;-78
2021/12/26 05:39:38;;;;;;;6.53;4.43;;;5.50;99.90;;;;;;5029389;28;20542;-78
2021/12/26 05:42:04;;;;;;;8.02;4.72;;;5.50;99.90;;;;;;5030466;28;20029;-78
2021/12/26 05:44:30;;;;;;;6.47;4.55;;;5.60;99.90;;;;;;5033164;28;20053;-78
2021/12/26 05:46:56;;;;;;;7.03;4.38;;;5.60;99.90;;;;;;5031573;28;20033;-78
2021/12/26 05:49:21;;;;;;;6.95;4.38;;;5.50;99.90;;;;;;5031163;28;20034;-78
2021/12/26 05:51:47;;;;;;;8.07;4.28;;;5.50;99.90;;;;;;5031803;28;20029;-78
2021/12/26 05:54:13;;;;;;;6.65;4.45;;;5.50;99.90;;;;;;5031485;28;20021;-78
2021/12/26 05:56:38;;;;;;;10.35;4.38;;;5.20;99.90;;;;;;5033196;28;20474;-78
2021/12/26 05:59:04;;;;;;;6.75;4.50;;;5.20;99.90;;;;;;5031600;28;20030;-78
2021/12/26 06:01:30;;;;;;;8.52;4.97;;;5.20;99.90;;;;;;5030068;28;20053;-78
2021/12/26 06:03:55;;;;;;;6.45;4.25;;;5.20;99.90;;;;;;5031651;28;20044;-78
2021/12/26 06:06:21;;;;;;;6.82;4.05;;;5.20;99.90;;;;;;5030807;28;20510;-78
2021/12/26 06:08:47;;;;;;;6.97;4.60;;;5.10;99.90;;;;;;5015554;28;20057;-78
2021/12/26 06:11:13;;;;;;;7.53;5.00;;;4.90;99.90;;;;;;5032844;28;20021;-78
2021/12/26 06:13:39;;;;;;;7.30;4.70;;;5.00;99.90;;;;;;5030985;28;20110;-78
2021/12/26 06:16:04;;;;;;;7.95;4.68;;;5.10;99.90;;;;;;5031476;28;20021;-78
2021/12/26 06:18:30;;;;;;;7.32;4.78;;;5.20;99.90;;;;;;5028906;28;20573;-78
2021/12/26 06:20:56;;;;;;;7.53;4.57;;;5.20;99.90;;;;;;5029385;28;20446;-78
2021/12/26 06:23:22;;;;;;;6.47;4.40;;;5.20;99.90;;;;;;5032458;28;20026;-78
2021/12/26 06:25:47;;;;;;;8.48;5.25;;;5.20;99.90;;;;;;5016049;28;20721;-78
2021/12/26 06:28:13;;;;;;;6.63;4.40;;;5.30;99.90;;;;;;5023612;28;20036;-78
2021/12/26 06:30:39;;;;;;;7.82;4.95;;;5.20;99.90;;;;;;5031115;28;20022;-78
2021/12/26 06:33:04;;;;;;;6.47;4.13;;;5.30;99.90;;;;;;5031255;28;20095;-78
2021/12/26 06:35:30;;;;;;;7.93;4.93;;;5.30;99.90;;;;;;5032444;28;20026;-78
2021/12/26 06:37:56;;;;;;;7.53;4.57;;;5.30;99.90;;;;;;5030348;28;20030;-78
2021/12/26 06:40:22;;;;;;;7.78;4.53;;;5.40;99.90;;;;;;5026672;28;20060;-78
2021/12/26 06:42:49;;;;;;;6.03;4.00;;;5.40;99.90;;;;;;5029933;28;20495;-78
2021/12/26 06:45:18;;;;;;;8.60;4.38;;;5.40;99.90;;;;;;5029562;28;20091;-78
2021/12/26 06:47:50;;;;;;;7.63;4.32;;;5.40;99.90;;;;;;5029716;28;20033;-78
2021/12/26 06:50:17;;;;;;;4.85;4.00;;;5.30;99.90;;;;;;5031714;28;20071;-78
2021/12/26 06:52:43;;;;;;;5.70;3.95;;;5.30;99.90;;;;;;5030454;28;20564;-79
2021/12/26 06:55:10;;;;;;;7.38;4.13;;;5.40;99.90;;;;;;5030602;28;20049;-78
2021/12/26 06:57:37;;;;;;;6.03;4.20;;;5.40;99.90;;;;;;5030513;28;20021;-79
2021/12/26 07:00:06;;;;;;;5.03;3.75;;;5.40;99.90;;;;;;5030993;28;20086;-78
2021/12/26 07:02:31;;;;;;;6.05;3.95;;;5.40;99.90;;;;;;5030388;28;20453;-78
2021/12/26 07:04:57;;;;;;;5.22;3.45;;;5.40;99.90;;;;;;5028370;28;20037;-78
2021/12/26 07:07:23;;;;;;;5.90;3.90;;;5.40;99.90;;;;;;5030116;28;20025;-78
2021/12/26 07:09:48;;;;;;;5.78;3.70;;;5.40;99.90;;;;;;5030296;28;20021;-78
2021/12/26 07:12:14;;;;;;;4.05;3.22;;;5.40;99.90;;;;;;5028998;28;20406;-78
2021/12/26 07:14:41;;;;;;;5.60;3.40;;;5.50;99.90;;;;;;5030241;28;20030;-78
2021/12/26 07:17:07;;;;;;;6.05;3.50;;;5.40;99.90;;;;;;5030545;28;20629;-78
2021/12/26 07:19:33;;;;;;;6.55;3.78;;;5.40;99.90;;;;;;5029905;28;20034;-79
2021/12/26 07:21:59;;;;;;;7.78;4.38;;;5.30;99.90;;;;;;5029852;28;20022;-78
2021/12/26 07:24:24;;;;;;;6.10;3.90;;;5.40;99.90;;;;;;5029879;28;20037;-78
2021/12/26 07:26:50;;;;;;;6.50;4.35;;;5.50;99.90;;;;;;5029744;28;20567;-79
2021/12/26 07:29:16;;;;;;;5.63;3.83;;;5.50;99.90;;;;;;5030997;28;20018;-78
2021/12/26 07:31:41;;;;;;;7.13;4.13;;;5.60;99.90;;;;;;5028010;28;20482;-78
2021/12/26 07:34:07;;;;;;;5.47;4.00;;;5.60;99.90;;;;;;5029704;28;20494;-79
2021/12/26 07:36:33;;;;;;;6.18;3.67;;;5.50;99.90;;;;;;5026499;28;20105;-79
2021/12/26 07:38:58;;;;;;;7.22;4.65;;;5.50;99.90;;;;;;5028421;28;20083;-78
2021/12/26 07:41:24;;;;;;;5.40;3.80;;;5.50;99.90;;;;;;5031257;28;20032;-78
2021/12/26 07:43:50;;;;;;;5.45;3.90;;;5.60;99.90;;;;;;5026831;28;20041;-79
2021/12/26 07:46:16;;;;;;;9.73;5.55;;;5.60;99.90;;;;;;5028550;28;20041;-78
2021/12/26 07:48:42;;;;;;;10.38;5.72;;;5.60;99.90;;;;;;5060337;28;20033;-78
2021/12/26 07:51:08;;;;;;;12.98;7.20;;;5.60;99.90;;;;;;5029472;28;20025;-78
2021/12/26 07:53:34;;;;;;;17.98;8.85;;;5.60;99.90;;;;;;5015794;28;20087;-78
2021/12/26 07:56:00;;;;;;;15.15;7.68;;;5.60;99.90;;;;;;5028779;28;20049;-78
2021/12/26 07:58:25;;;;;;;15.05;7.88;;;5.70;99.90;;;;;;5029724;28;20037;-78
2021/12/26 08:00:52;;;;;;;14.55;7.90;;;5.70;99.90;;;;;;5027902;28;20025;-78
2021/12/26 08:03:18;;;;;;;14.45;7.07;;;5.80;99.90;;;;;;5028300;28;20116;-78
2021/12/26 08:05:44;;;;;;;11.50;7.10;;;5.80;99.90;;;;;;5026060;28;20132;-78
2021/12/26 08:08:09;;;;;;;13.52;7.00;;;5.90;99.90;;;;;;5029532;28;20037;-78
2021/12/26 08:10:35;;;;;;;11.02;6.72;;;5.90;99.90;;;;;;5028510;28;20025;-79
2021/12/26 08:13:01;;;;;;;11.90;6.20;;;5.90;99.90;;;;;;5028419;28;20045;-78
2021/12/26 08:15:27;;;;;;;11.63;5.88;;;5.90;99.90;;;;;;5028836;28;20626;-79
2021/12/26 08:17:52;;;;;;;9.10;5.40;;;6.00;99.90;;;;;;5027591;28;20076;-78
2021/12/26 08:20:18;;;;;;;10.45;5.20;;;6.00;99.90;;;;;;5030068;28;20061;-78
2021/12/26 08:22:44;;;;;;;10.52;5.38;;;6.00;99.90;;;;;;5029013;28;20022;-78
2021/12/26 08:25:10;;;;;;;9.93;5.50;;;6.20;99.90;;;;;;5028331;28;20029;-78
2021/12/26 08:27:36;;;;;;;8.90;5.00;;;6.20;99.90;;;;;;5028784;28;20187;-79
2021/12/26 08:30:04;;;;;;;7.07;4.57;;;6.20;99.90;;;;;;5028384;28;20506;-78
2021/12/26 08:32:32;;;;;;;7.25;4.18;;;6.20;99.90;;;;;;5028571;28;20021;-78
2021/12/26 08:35:00;;;;;;;9.18;4.78;;;6.30;99.90;;;;;;5027295;28;20045;-79
2021/12/26 08:37:27;;;;;;;6.97;4.20;;;6.30;99.90;;;;;;5028212;28;20080;-78
2021/12/26 08:39:53;;;;;;;7.07;3.78;;;6.30;99.90;;;;;;5029209;28;20076;-78
2021/12/26 08:42:19;;;;;;;5.07;3.75;;;6.40;99.90;;;;;;5032367;28;20115;-77
2021/12/26 08:44:45;;;;;;;5.30;3.95;;;6.40;99.90;;;;;;5028974;28;20502;-78
2021/12/26 08:47:12;;;;;;;6.15;4.25;;;6.40;99.90;;;;;;5033009;28;20503;-78
2021/12/26 08:49:38;;;;;;;7.35;4.63;;;6.60;99.90;;;;;;5032042;28;20025;-78
2021/12/26 08:52:06;;;;;;;7.80;4.57;;;6.60;99.90;;;;;;5032196;28;20026;-78
2021/12/26 08:54:33;;;;;;;9.10;4.85;;;6.70;99.90;;;;;;5029232;28;20400;-78
2021/12/26 08:57:02;;;;;;;7.00;4.47;;;6.70;99.90;;;;;;5030086;28;20018;-78
2021/12/26 08:59:30;;;;;;;8.35;4.80;;;6.70;99.90;;;;;;5031190;28;20026;-79
2021/12/26 09:02:02;;;;;;;6.93;4.38;;;6.80;99.90;;;;;;5031938;28;20022;-78
2021/12/26 09:04:29;;;;;;;7.70;4.80;;;6.80;99.90;;;;;;5029576;28;20511;-78
2021/12/26 09:06:56;;;;;;;6.28;4.30;;;6.90;99.90;;;;;;5028466;28;20022;-75
2021/12/26 09:09:21;;;;;;;7.90;4.35;;;7.00;99.90;;;;;;5023313;28;20056;-74
2021/12/26 09:11:47;;;;;;;5.95;3.58;;;7.00;99.90;;;;;;5028870;28;20536;-75
2021/12/26 09:14:13;;;;;;;5.68;4.07;;;7.10;99.90;;;;;;5031749;28;20034;-77
2021/12/26 09:16:39;;;;;;;5.55;3.50;;;7.10;99.90;;;;;;5023947;28;20068;-75
2021/12/26 09:19:05;;;;;;;6.70;4.03;;;7.20;99.90;;;;;;5024800;28;20060;-75
2021/12/26 09:21:31;;;;;;;7.00;4.63;;;7.20;99.90;;;;;;5024290;28;20121;-75
2021/12/26 09:23:57;;;;;;;6.07;3.70;;;7.40;99.90;;;;;;5027960;28;20128;-74
2021/12/26 09:26:23;;;;;;;10.07;4.18;;;7.60;99.90;;;;;;5022271;28;20547;-75
2021/12/26 09:28:52;;;;;;;7.30;4.50;;;7.70;99.90;;;;;;5030229;28;20038;-75
2021/12/26 09:31:17;;;;;;;7.32;4.50;;;7.80;99.90;;;;;;5031087;28;20052;-75
2021/12/26 09:33:43;;;;;;;6.10;4.45;;;7.90;99.90;;;;;;5029144;28;20525;-75
2021/12/26 09:36:09;;;;;;;7.85;5.40;;;8.00;99.90;;;;;;5026963;28;20029;-75
2021/12/26 09:38:35;;;;;;;8.20;5.07;;;8.10;99.90;;;;;;5032804;28;20498;-76
2021/12/26 09:41:01;;;;;;;8.50;5.72;;;8.20;99.90;;;;;;5019871;28;20080;-74
2021/12/26 09:43:27;;;;;;;6.85;4.45;;;8.30;99.90;;;;;;5029022;28;20041;-74
2021/12/26 09:45:53;;;;;;;9.85;5.65;;;8.40;99.90;;;;;;5030552;28;20029;-74
2021/12/26 09:48:19;;;;;;;8.63;5.53;;;8.40;99.90;;;;;;5028139;28;20061;-77
2021/12/26 09:50:46;;;;;;;8.45;4.68;;;8.50;99.90;;;;;;5037167;28;20017;-76
2021/12/26 09:53:12;;;;;;;6.13;4.00;;;8.50;99.90;;;;;;5032046;28;20581;-78
2021/12/26 09:55:38;;;;;;;8.27;4.43;;;8.50;99.90;;;;;;5030476;28;20025;-78
2021/12/26 09:58:04;;;;;;;7.95;4.43;;;8.50;99.90;;;;;;5031881;28;20038;-78
2021/12/26 10:00:35;;;;;;;7.20;4.40;;;8.60;99.90;;;;;;5039207;28;20071;-78
2021/12/26 10:03:14;;;;;;;6.20;3.65;;;8.70;99.90;;;;;;5033766;28;20029;-78
2021/12/26 10:06:09;;;;;;;5.75;3.90;;;8.90;99.90;;;;;;5037452;28;20025;-78
2021/12/26 10:08:54;;;;;;;4.40;3.58;;;9.10;99.90;;;;;;5037617;28;20527;-77
2021/12/26 10:11:21;;;;;;;6.45;4.13;;;9.30;99.90;;;;;;5033863;28;20031;-77
2021/12/26 10:13:59;;;;;;;5.60;3.22;;;9.40;99.90;;;;;;5041110;28;20025;-76
2021/12/26 10:16:28;;;;;;;5.90;3.63;;;9.50;99.90;;;;;;5041090;28;20032;-75
2021/12/26 10:18:56;;;;;;;4.55;3.20;;;9.50;99.90;;;;;;5034576;28;20040;-75
2021/12/26 10:21:38;;;;;;;4.20;3.05;;;9.70;99.90;;;;;;5029960;28;20033;-75
2021/12/26 10:24:17;;;;;;;5.35;3.08;;;9.60;99.90;;;;;;5030652;28;20375;-75
2021/12/26 10:26:57;;;;;;;4.93;3.53;;;9.60;99.90;;;;;;5036886;28;20039;-75
2021/12/26 10:29:56;;;;;;;5.28;3.15;;;9.60;99.90;;;;;;5031221;28;20033;-75
2021/12/26 10:32:25;;;;;;;5.38;2.85;;;9.70;99.90;;;;;;4983864;28;20150;-78
2021/12/26 10:34:59;;;;;;;5.72;3.28;;;9.80;99.90;;;;;;4985611;28;20056;-78
2021/12/26 10:37:28;;;;;;;3.80;2.80;;;9.90;99.90;;;;;;4987461;28;20033;-77
2021/12/26 10:39:58;;;;;;;4.35;2.97;;;10.00;99.90;;;;;;4986211;28;20094;-78
2021/12/26 10:42:28;;;;;;;3.72;2.60;;;10.00;99.90;;;;;;4989704;28;20145;-77
2021/12/26 10:44:57;;;;;;;3.38;2.67;;;10.00;99.90;;;;;;5000570;28;20060;-77
2021/12/26 10:47:28;;;;;;;5.47;3.17;;;10.10;99.90;;;;;;4988059;28;20170;-77
2021/12/26 10:50:06;;;;;;;4.13;2.63;;;10.20;99.90;;;;;;4983595;28;20543;-78
2021/12/26 10:52:40;;;;;;;3.63;2.00;;;10.20;99.90;;;;;;4986699;28;20042;-78
2021/12/26 10:55:11;;;;;;;4.82;3.03;;;10.20;99.90;;;;;;4973652;28;20100;-78
2021/12/26 10:57:47;;;;;;;3.53;2.13;;;10.40;99.90;;;;;;4975557;28;20065;-78
2021/12/26 11:00:19;;;;;;;3.75;2.40;;;10.50;99.90;;;;;;4972560;28;20086;-77
2021/12/26 11:03:00;;;;;;;2.33;1.90;;;10.60;99.90;;;;;;4983523;28;20018;-77
2021/12/26 11:05:38;;;;;;;3.78;2.60;;;10.70;99.90;;;;;;4988144;28;20030;-77
2021/12/26 11:08:11;;;;;;;3.20;2.10;;;10.80;99.90;;;;;;5004039;28;20571;-75
2021/12/26 11:10:39;;;;;;;4.78;2.83;;;10.90;99.90;;;;;;5028164;28;20115;-78
2021/12/26 11:13:08;;;;;;;4.32;2.63;;;11.00;99.90;;;;;;5033410;28;20029;-77
2021/12/26 11:15:39;;;;;;;3.53;2.10;;;11.00;99.90;;;;;;5035435;28;20083;-77
2021/12/26 11:18:11;;;;;;;4.30;2.30;;;11.00;99.90;;;;;;5034041;28;20034;-77
2021/12/26 11:20:42;;;;;;;3.05;2.42;;;11.00;99.90;;;;;;5034213;28;20040;-77
2021/12/26 11:23:09;;;;;;;;;;;11.10;99.90;;;;;;5037779;28;20029;-76
2021/12/26 11:25:49;;;;;;;4.43;2.03;;;11.20;99.90;;;;;;5028292;28;19909;-79
2021/12/26 11:28:22;;;;;;;3.45;2.35;;;11.20;99.90;;;;;;5033197;28;20128;-77
2021/12/26 11:30:48;;;;;;;2.60;2.08;;;11.40;99.90;;;;;;5038327;28;20104;-76
2021/12/26 11:33:14;;;;;;;2.47;1.73;;;11.50;99.90;;;;;;5028436;28;20030;-77
2021/12/26 11:35:40;;;;;;;7.18;2.67;;;11.60;99.90;;;;;;5031906;28;20048;-77
2021/12/26 11:38:11;;;;;;;3.42;2.03;;;11.50;99.90;;;;;;5029343;28;20475;-79
2021/12/26 11:40:37;;;;;;;2.55;2.00;;;11.40;99.90;;;;;;5033130;28;20024;-77
2021/12/26 11:43:18;;;;;;;5.05;2.38;;;11.50;99.90;;;;;;5030443;28;20033;-75
2021/12/26 11:45:53;;;;;;;;;;;11.30;99.90;;;;;;5030105;28;20053;-77
2021/12/26 11:48:55;;;;;;;3.20;1.98;;;11.30;99.90;;;;;;5039830;28;19913;-76
2021/12/26 11:51:20;;;;;;;4.35;1.73;;;11.30;99.90;;;;;;5026869;28;20025;-77
2021/12/26 11:54:02;;;;;;;3.53;2.08;;;11.30;99.90;;;;;;5034262;28;20079;-78
2021/12/26 11:56:49;;;;;;;4.07;2.10;;;11.70;99.90;;;;;;5034052;28;20025;-80
2021/12/26 11:59:29;;;;;;;3.42;2.00;;;12.00;99.90;;;;;;5034426;28;20267;-78
2021/12/26 12:01:55;;;;;;;2.28;1.83;;;11.80;99.90;;;;;;5030493;28;20033;-77
2021/12/26 12:04:24;;;;;;;2.00;1.80;;;11.90;99.90;;;;;;5027186;28;20499;-78
2021/12/26 12:06:54;;;;;;;3.08;1.75;;;12.10;99.90;;;;;;5032065;28;20026;-77
2021/12/26 12:09:33;;;;;;;3.33;1.90;;;12.20;99.90;;;;;;5028457;28;20021;-75
2021/12/26 12:12:04;;;;;;;3.30;1.58;;;12.60;99.90;;;;;;5043999;28;20183;-74
2021/12/26 12:14:46;;;;;;;2.03;1.60;;;12.90;99.90;;;;;;5029364;28;20021;-74
2021/12/26 12:17:28;;;;;;;1.90;1.25;;;12.80;99.90;;;;;;5025618;28;20036;-74
2021/12/26 12:20:17;;;;;;;2.38;1.50;;;12.90;99.90;;;;;;5026363;28;20025;-74
2021/12/26 12:23:08;;;;;;;2.05;1.38;;;12.80;99.90;;;;;;5025020;28;20057;-75
2021/12/26 12:25:34;;;;;;;2.90;1.63;;;12.70;99.90;;;;;;5031636;28;20651;-74
2021/12/26 12:28:07;;;;;;;1.45;1.10;;;12.70;99.90;;;;;;5035322;28;20029;-78
2021/12/26 12:30:33;;;;;;;2.15;1.45;;;12.60;99.90;;;;;;5027949;28;20037;-80
2021/12/26 12:33:25;;;;;;;4.22;1.70;;;12.80;99.90;;;;;;5027849;28;20403;-84
2021/12/26 12:35:56;;;;;;;1.80;1.40;;;12.70;99.90;;;;;;5025969;28;20107;-87
2021/12/26 12:38:30;;;;;;;3.87;1.83;;;12.90;99.90;;;;;;5028885;28;20048;-86
2021/12/26 12:40:58;;;;;;;3.08;1.30;;;13.00;99.90;;;;;;5011240;28;20038;-86
2021/12/26 12:43:27;;;;;;;1.75;1.05;;;12.60;99.90;;;;;;5021843;28;20033;-85
2021/12/26 12:45:53;;;;;;;2.92;1.60;;;12.40;99.90;;;;;;5024988;28;20033;-85
2021/12/26 12:48:27;;;;;;;1.58;1.13;;;12.20;99.90;;;;;;5030378;28;20028;-86
2021/12/26 12:51:18;;;;;;;2.65;1.10;;;12.20;99.90;;;;;;5027462;28;20033;-86
2021/12/26 12:53:59;;;;;;;1.45;0.98;;;12.40;99.90;;;;;;5024628;28;20048;-86
2021/12/26 12:56:33;;;;;;;1.73;1.25;;;12.50;99.90;;;;;;5028198;28;20038;-85
2021/12/26 13:01:55;;;;;;;3.40;1.20;;;12.40;99.90;;;;;;5028571;28;20412;-86
2021/12/26 13:04:45;;;;;;;1.80;0.95;;;12.40;99.90;;;;;;5023979;28;20522;-86